Time;durP1;ratioP1;P1;durP2;ratioP2;P2;SDS_P1;SDS_P2;PMS_P1;PMS_P2;Temp;Humidity;BMP_temperature;BMP_pressure;BME280_temperature;BME280_humidity;BME280_pressure;Samples;Min_cycle;Max_cycle;Signal;HPM_P1;HPM_P2
2024/01/07 04:02:36;;;;;;;2.53;2.33;;;24.00;27.90;;;;;;4933974;28;45623;-81
2024/01/07 04:05:01;;;;;;;2.80;2.50;;;24.00;27.90;;;;;;4925185;28;44776;-81
2024/01/07 04:07:27;;;;;;;3.10;2.70;;;24.00;27.90;;;;;;4947488;28;45080;-83
2024/01/07 04:09:53;;;;;;;2.47;2.28;;;24.00;27.90;;;;;;4955273;28;45252;-81
2024/01/07 04:12:19;;;;;;;2.90;2.60;;;23.90;27.90;;;;;;4932018;28;45878;-81
2024/01/07 04:14:45;;;;;;;2.90;2.60;;;23.90;27.80;;;;;;4942767;28;45384;-82
2024/01/07 04:17:11;;;;;;;3.08;2.78;;;23.90;27.90;;;;;;4943999;28;45557;-80
2024/01/07 04:19:38;;;;;;;2.60;2.28;;;24.00;27.90;;;;;;4945627;28;46361;-82
2024/01/07 04:22:04;;;;;;;3.03;2.73;;;23.90;27.90;;;;;;4936303;28;45504;-83
2024/01/07 04:24:29;;;;;;;2.90;2.60;;;23.90;27.90;;;;;;4957999;28;45439;-82
2024/01/07 04:26:56;;;;;;;3.60;2.83;;;23.90;27.90;;;;;;4935318;28;45487;-81
2024/01/07 04:29:22;;;;;;;3.13;2.83;;;23.90;27.90;;;;;;4928581;28;45326;-82
2024/01/07 04:31:48;;;;;;;2.88;2.58;;;23.90;27.80;;;;;;4947180;28;45418;-82
2024/01/07 04:34:14;;;;;;;3.60;3.20;;;23.90;27.80;;;;;;4938415;28;45836;-82
2024/01/07 04:36:41;;;;;;;3.10;2.80;;;23.90;27.80;;;;;;4938621;28;45203;-82
2024/01/07 04:39:07;;;;;;;3.17;2.63;;;23.80;27.70;;;;;;4970107;28;45868;-81
2024/01/07 04:41:33;;;;;;;2.80;2.50;;;23.80;27.70;;;;;;4918718;28;45326;-82
2024/01/07 04:43:59;;;;;;;2.65;2.40;;;23.80;27.70;;;;;;4925798;28;45672;-82
2024/01/07 04:46:25;;;;;;;2.80;2.50;;;23.80;27.70;;;;;;4945264;28;45144;-81
2024/01/07 04:48:51;;;;;;;2.78;2.50;;;23.80;27.70;;;;;;4955599;28;46247;-82
2024/01/07 04:51:17;;;;;;;2.92;2.65;;;23.80;27.70;;;;;;4967767;28;46470;-82
2024/01/07 04:53:43;;;;;;;3.13;2.83;;;23.80;27.70;;;;;;4972426;28;45464;-82
2024/01/07 04:56:09;;;;;;;4.20;2.77;;;23.80;27.70;;;;;;4982910;28;45127;-81
2024/01/07 04:58:35;;;;;;;3.17;2.60;;;23.70;27.70;;;;;;4942964;28;46110;-82
2024/01/07 05:01:01;;;;;;;3.20;2.78;;;23.70;27.70;;;;;;4944944;28;45139;-82
2024/01/07 05:03:27;;;;;;;2.80;2.47;;;23.70;27.70;;;;;;4971143;28;45009;-82
2024/01/07 05:05:53;;;;;;;2.47;2.27;;;23.70;27.60;;;;;;4949558;28;45473;-82
2024/01/07 05:08:18;;;;;;;2.67;2.40;;;23.70;27.70;;;;;;4954111;28;45160;-82
2024/01/07 05:10:44;;;;;;;2.77;2.50;;;23.70;27.70;;;;;;4934387;28;45311;-81
2024/01/07 05:13:10;;;;;;;2.60;2.40;;;23.70;27.70;;;;;;4956423;28;45192;-82
2024/01/07 05:15:36;;;;;;;3.03;2.47;;;23.70;27.60;;;;;;4946340;28;45019;-82
2024/01/07 05:18:02;;;;;;;2.93;2.53;;;23.70;27.70;;;;;;4964357;28;45425;-81
2024/01/07 05:20:28;;;;;;;2.80;2.50;;;23.70;27.60;;;;;;4946927;28;45284;-82
2024/01/07 05:22:54;;;;;;;2.72;2.40;;;23.60;27.60;;;;;;4938348;28;45238;-82
2024/01/07 05:25:20;;;;;;;2.92;2.60;;;23.60;27.60;;;;;;4931087;28;45020;-81
2024/01/07 05:27:46;;;;;;;2.65;2.28;;;23.60;27.60;;;;;;4937031;28;46173;-81
2024/01/07 05:30:13;;;;;;;3.00;2.53;;;23.60;27.60;;;;;;4935044;28;45402;-82
2024/01/07 05:32:39;;;;;;;2.53;2.30;;;23.60;27.70;;;;;;4934631;28;45567;-78
2024/01/07 05:35:05;;;;;;;2.50;2.30;;;23.50;27.60;;;;;;4967739;28;45336;-81
2024/01/07 05:37:31;;;;;;;2.72;2.42;;;23.60;27.60;;;;;;4912395;28;46475;-82
2024/01/07 05:39:57;;;;;;;2.70;2.50;;;23.60;27.60;;;;;;4934811;28;45429;-82
2024/01/07 05:42:23;;;;;;;2.75;2.45;;;23.50;27.60;;;;;;4941295;28;45242;-82
2024/01/07 05:44:49;;;;;;;2.42;2.20;;;23.50;27.60;;;;;;4937387;28;45719;-81
2024/01/07 05:47:16;;;;;;;3.05;2.30;;;23.50;27.50;;;;;;4943478;28;46373;-81
2024/01/07 05:49:42;;;;;;;2.30;2.10;;;23.50;27.50;;;;;;4954701;28;45111;-81
2024/01/07 05:52:08;;;;;;;2.55;2.35;;;23.50;27.50;;;;;;4951591;28;45263;-82
2024/01/07 05:54:34;;;;;;;3.53;2.43;;;23.50;27.50;;;;;;4937926;28;45593;-82
2024/01/07 05:57:00;;;;;;;2.40;2.20;;;23.50;27.50;;;;;;4944089;28;45612;-84
2024/01/07 05:59:26;;;;;;;2.85;2.33;;;23.50;27.50;;;;;;4963120;28;44893;-81
2024/01/07 06:01:56;;;;;;;2.47;2.27;;;23.40;27.50;;;;;;4911571;28;45507;-81
2024/01/07 06:04:22;;;;;;;2.30;2.10;;;23.40;27.70;;;;;;4954884;28;45141;-81
2024/01/07 06:06:48;;;;;;;2.60;2.30;;;23.40;27.50;;;;;;4935530;28;46218;-81
2024/01/07 06:09:13;;;;;;;2.47;2.22;;;23.30;27.60;;;;;;4962836;28;45809;-82
2024/01/07 06:11:39;;;;;;;2.27;2.07;;;23.40;27.70;;;;;;4946434;28;45255;-82
2024/01/07 06:14:05;;;;;;;2.60;2.40;;;23.30;27.60;;;;;;4945979;28;44821;-82
2024/01/07 06:16:31;;;;;;;2.90;2.60;;;23.30;27.50;;;;;;4944523;28;46466;-84
2024/01/07 06:18:57;;;;;;;2.42;2.22;;;23.30;27.50;;;;;;4975440;28;45254;-84
2024/01/07 06:21:23;;;;;;;2.70;2.50;;;23.30;27.50;;;;;;4930350;28;45118;-82
2024/01/07 06:23:49;;;;;;;2.47;2.28;;;23.30;27.40;;;;;;4936869;28;44942;-82
2024/01/07 06:26:15;;;;;;;2.80;2.40;;;23.20;27.30;;;;;;4965528;28;45609;-81
2024/01/07 06:28:41;;;;;;;2.92;2.63;;;23.30;27.30;;;;;;4952985;28;45498;-82
2024/01/07 06:31:07;;;;;;;2.90;2.53;;;23.20;27.30;;;;;;4912993;28;45163;-82
2024/01/07 06:33:34;;;;;;;3.05;2.55;;;23.20;27.30;;;;;;4950550;28;46144;-82
2024/01/07 06:36:00;;;;;;;2.88;2.53;;;23.20;27.30;;;;;;4957804;28;45285;-82
2024/01/07 06:38:25;;;;;;;2.53;2.33;;;23.20;27.30;;;;;;4931854;28;45327;-82
2024/01/07 06:40:54;;;;;;;3.00;2.67;;;23.20;27.20;;;;;;4927565;28;45324;-82
2024/01/07 06:43:19;;;;;;;2.58;2.38;;;23.20;27.20;;;;;;4951932;28;45583;-82
2024/01/07 06:45:45;;;;;;;3.00;2.70;;;23.20;27.30;;;;;;4944566;28;45619;-81
2024/01/07 06:48:11;;;;;;;2.67;2.40;;;23.20;27.20;;;;;;4952317;28;45190;-82
2024/01/07 06:50:37;;;;;;;2.67;2.47;;;23.20;27.20;;;;;;4948862;28;44696;-82
2024/01/07 06:53:02;;;;;;;2.83;2.53;;;23.20;27.30;;;;;;4950624;28;45528;-82
2024/01/07 06:55:28;;;;;;;2.90;2.60;;;23.10;27.20;;;;;;4945626;28;45623;-81
2024/01/07 06:57:53;;;;;;;2.80;2.55;;;23.10;27.20;;;;;;4948748;28;45995;-82
2024/01/07 07:00:19;;;;;;;3.20;2.90;;;23.10;27.20;;;;;;4938284;28;45127;-81
2024/01/07 07:02:47;;;;;;;2.90;2.60;;;23.10;27.20;;;;;;4948583;28;45408;-82
2024/01/07 07:05:14;;;;;;;3.00;2.70;;;23.10;27.20;;;;;;4948451;28;45285;-82
2024/01/07 07:07:39;;;;;;;2.90;2.60;;;23.10;27.20;;;;;;4951107;28;45543;-81
2024/01/07 07:10:06;;;;;;;3.33;2.72;;;23.10;27.20;;;;;;4968038;28;45435;-81
2024/01/07 07:12:32;;;;;;;3.10;2.80;;;23.10;27.20;;;;;;4932540;28;45235;-82
2024/01/07 07:14:58;;;;;;;3.50;3.00;;;23.10;27.20;;;;;;4935073;28;46234;-82
2024/01/07 07:17:24;;;;;;;2.93;2.63;;;23.10;27.20;;;;;;4945226;28;45653;-82
2024/01/07 07:19:49;;;;;;;3.05;2.75;;;23.10;27.20;;;;;;4952103;28;45225;-83
2024/01/07 07:22:16;;;;;;;3.00;2.70;;;23.10;27.20;;;;;;4914798;28;44934;-81
2024/01/07 07:24:41;;;;;;;3.55;3.05;;;23.10;27.20;;;;;;4955309;28;45235;-82
2024/01/07 07:27:08;;;;;;;3.30;3.00;;;23.10;27.20;;;;;;4933634;28;45635;-82
2024/01/07 07:29:34;;;;;;;3.15;2.85;;;23.10;27.20;;;;;;4951667;28;45448;-82
2024/01/07 07:32:00;;;;;;;3.40;3.10;;;23.00;27.10;;;;;;4931126;28;45087;-81
2024/01/07 07:34:26;;;;;;;3.05;2.75;;;23.00;27.10;;;;;;4951956;28;46621;-82
2024/01/07 07:36:52;;;;;;;3.25;2.95;;;23.00;27.10;;;;;;4967819;28;45221;-82
2024/01/07 07:39:17;;;;;;;3.33;3.03;;;23.10;27.20;;;;;;4954216;28;45319;-82
2024/01/07 07:41:45;;;;;;;3.30;3.00;;;23.00;27.10;;;;;;4982699;28;45203;-84
2024/01/07 07:44:11;;;;;;;3.70;3.30;;;23.00;27.10;;;;;;4938285;28;46475;-81
2024/01/07 07:46:37;;;;;;;3.28;2.97;;;23.10;27.10;;;;;;4930416;28;45743;-82
2024/01/07 07:49:03;;;;;;;3.25;2.95;;;23.00;27.10;;;;;;4934432;28;45192;-82
2024/01/07 07:51:28;;;;;;;3.93;3.30;;;23.00;27.10;;;;;;4934882;28;45654;-82
2024/01/07 07:53:54;;;;;;;3.40;3.00;;;23.00;27.10;;;;;;4938220;28;47341;-82
2024/01/07 07:56:20;;;;;;;3.70;3.22;;;23.00;27.10;;;;;;4938317;28;45483;-82
2024/01/07 07:58:46;;;;;;;3.50;3.20;;;23.00;27.10;;;;;;4938844;28;45706;-81
2024/01/07 08:01:11;;;;;;;3.50;3.15;;;23.00;27.10;;;;;;4941367;28;45740;-82
2024/01/07 08:03:37;;;;;;;3.40;3.10;;;22.90;27.10;;;;;;4937487;28;46108;-81
2024/01/07 08:06:03;;;;;;;3.25;2.95;;;22.90;27.10;;;;;;4932613;28;45815;-82
2024/01/07 08:08:29;;;;;;;3.67;3.37;;;22.90;27.10;;;;;;4955065;28;45204;-81
2024/01/07 08:10:55;;;;;;;3.33;3.03;;;22.90;27.10;;;;;;4933491;28;45664;-82
2024/01/07 08:13:21;;;;;;;3.50;3.20;;;22.90;27.10;;;;;;4939028;28;45754;-82
2024/01/07 08:15:47;;;;;;;3.50;3.20;;;22.90;27.50;;;;;;4915925;28;44954;-79
2024/01/07 08:18:13;;;;;;;3.80;3.40;;;22.90;27.10;;;;;;4953038;28;44911;-82
2024/01/07 08:20:38;;;;;;;4.00;3.53;;;22.90;27.00;;;;;;4931008;28;45410;-82
2024/01/07 08:23:04;;;;;;;3.37;3.07;;;22.90;27.10;;;;;;4908155;28;47232;-83
2024/01/07 08:25:30;;;;;;;3.23;2.93;;;22.90;27.10;;;;;;4931969;28;45115;-81
2024/01/07 08:27:56;;;;;;;3.53;3.23;;;22.90;27.10;;;;;;4921013;28;45680;-83
2024/01/07 08:30:21;;;;;;;3.58;3.03;;;22.90;27.10;;;;;;4928698;28;45460;-82
2024/01/07 08:32:47;;;;;;;3.30;3.00;;;22.90;27.10;;;;;;4920298;28;47189;-82
2024/01/07 08:35:13;;;;;;;3.53;3.15;;;22.90;27.00;;;;;;4932000;28;45242;-81
2024/01/07 08:37:39;;;;;;;3.33;3.03;;;22.90;27.10;;;;;;4952488;28;45158;-83
2024/01/07 08:40:06;;;;;;;3.60;3.20;;;22.80;27.00;;;;;;4936114;28;45502;-82
2024/01/07 08:42:32;;;;;;;3.40;3.10;;;22.80;27.00;;;;;;4925851;28;46355;-82
2024/01/07 08:45:00;;;;;;;3.40;3.10;;;22.80;27.00;;;;;;4956401;28;45195;-82
2024/01/07 08:47:26;;;;;;;3.90;3.50;;;22.80;27.00;;;;;;4944419;28;45569;-83
2024/01/07 08:49:53;;;;;;;3.88;3.47;;;22.80;27.00;;;;;;4935032;28;45364;-83
2024/01/07 08:52:19;;;;;;;3.38;3.08;;;22.80;26.90;;;;;;4950280;28;46190;-80
2024/01/07 08:54:45;;;;;;;4.35;3.30;;;22.70;27.00;;;;;;4952335;28;44961;-82
2024/01/07 08:57:11;;;;;;;3.40;3.10;;;22.80;27.00;;;;;;4931831;28;45436;-82
2024/01/07 08:59:38;;;;;;;3.60;3.20;;;22.70;26.90;;;;;;4953197;28;45226;-82
2024/01/07 09:02:05;;;;;;;3.30;3.00;;;22.70;26.90;;;;;;4937446;28;46665;-82
2024/01/07 09:04:32;;;;;;;3.70;3.40;;;22.70;26.90;;;;;;4940673;28;44927;-82
2024/01/07 09:06:57;;;;;;;4.35;3.30;;;22.70;26.90;;;;;;4922173;28;45240;-82
2024/01/07 09:09:23;;;;;;;3.60;3.28;;;22.70;27.00;;;;;;4937370;28;45208;-82
2024/01/07 09:11:49;;;;;;;4.00;3.60;;;22.70;27.00;;;;;;4933355;28;46937;-83
2024/01/07 09:14:16;;;;;;;3.60;3.17;;;22.60;26.90;;;;;;4950037;28;45214;-82
2024/01/07 09:16:42;;;;;;;3.80;3.40;;;22.70;26.90;;;;;;4924279;28;45298;-82
2024/01/07 09:19:08;;;;;;;3.57;3.20;;;22.60;27.00;;;;;;4932522;28;44981;-82
2024/01/07 09:21:34;;;;;;;3.83;3.42;;;22.60;27.00;;;;;;4929998;28;45971;-82
2024/01/07 09:24:00;;;;;;;4.18;3.78;;;22.60;27.00;;;;;;4935031;28;45540;-82
2024/01/07 09:26:26;;;;;;;4.47;3.63;;;22.60;27.00;;;;;;4949416;28;45431;-82
2024/01/07 09:28:52;;;;;;;4.05;3.60;;;22.50;26.90;;;;;;4935710;28;44845;-83
2024/01/07 09:31:18;;;;;;;3.83;3.40;;;22.60;27.00;;;;;;4925474;28;46103;-82
2024/01/07 09:33:44;;;;;;;4.45;3.60;;;22.50;26.90;;;;;;4952367;28;45300;-82
2024/01/07 09:36:10;;;;;;;4.18;3.65;;;22.50;26.90;;;;;;4963207;28;45089;-83
2024/01/07 09:38:36;;;;;;;4.25;3.78;;;22.50;26.80;;;;;;4948454;28;45233;-82
2024/01/07 09:41:02;;;;;;;4.30;3.90;;;22.50;26.80;;;;;;4943434;28;46678;-82
2024/01/07 09:43:29;;;;;;;3.93;3.53;;;22.50;26.80;;;;;;4954856;28;45366;-83
2024/01/07 09:45:54;;;;;;;4.88;3.75;;;22.50;26.80;;;;;;4942533;28;45102;-82
2024/01/07 09:48:20;;;;;;;4.70;4.07;;;22.50;26.80;;;;;;4940862;28;46191;-82
2024/01/07 09:50:46;;;;;;;4.40;3.85;;;22.50;26.80;;;;;;4912872;28;46595;-82
2024/01/07 09:53:16;;;;;;;4.60;3.85;;;22.50;26.90;;;;;;4950711;28;45342;-82
2024/01/07 09:56:11;;;;;;;5.05;4.20;;;22.40;26.80;;;;;;4944688;28;45786;-82
2024/01/07 09:58:37;;;;;;;4.90;4.40;;;22.40;26.80;;;;;;4936686;28;47247;-83
2024/01/07 10:01:04;;;;;;;5.38;3.90;;;22.40;26.80;;;;;;4917024;28;45996;-82
2024/01/07 10:03:30;;;;;;;5.28;3.90;;;22.40;26.80;;;;;;4950096;28;45000;-82
2024/01/07 10:05:56;;;;;;;4.30;3.85;;;22.40;26.80;;;;;;4947279;28;44875;-83
2024/01/07 10:08:22;;;;;;;4.97;4.10;;;22.40;26.80;;;;;;4931561;28;45693;-82
2024/01/07 10:10:51;;;;;;;4.50;3.95;;;22.40;26.80;;;;;;4947091;28;45429;-82
2024/01/07 10:13:17;;;;;;;5.32;4.43;;;22.30;26.80;;;;;;4950347;28;45401;-82
2024/01/07 10:15:42;;;;;;;4.50;4.07;;;22.40;26.80;;;;;;4930380;28;45693;-82
2024/01/07 10:18:08;;;;;;;4.80;4.10;;;22.30;26.80;;;;;;4950514;28;45711;-82
2024/01/07 10:20:34;;;;;;;4.80;4.07;;;22.40;26.80;;;;;;4926758;28;45755;-82
2024/01/07 10:23:03;;;;;;;5.22;4.50;;;22.40;26.80;;;;;;4947944;28;45511;-82
2024/01/07 10:25:30;;;;;;;5.53;4.53;;;22.30;26.80;;;;;;4948298;28;45133;-82
2024/01/07 10:28:03;;;;;;;5.03;4.13;;;22.30;26.80;;;;;;4935828;28;45410;-82
2024/01/07 10:30:29;;;;;;;5.10;4.20;;;22.30;26.80;;;;;;4944097;28;46649;-83
2024/01/07 10:32:58;;;;;;;5.10;4.30;;;22.30;26.80;;;;;;4932157;28;45435;-82
2024/01/07 10:35:33;;;;;;;6.67;4.57;;;22.30;26.70;;;;;;4910922;28;45450;-82
2024/01/07 10:38:00;;;;;;;5.00;4.30;;;22.30;26.70;;;;;;4934573;28;45287;-82
2024/01/07 10:40:27;;;;;;;5.75;4.63;;;22.30;26.80;;;;;;4945760;28;45505;-81
2024/01/07 10:42:53;;;;;;;4.90;4.40;;;22.30;26.70;;;;;;4935320;28;45815;-82
2024/01/07 10:45:18;;;;;;;6.18;4.47;;;22.30;26.70;;;;;;4910254;28;45341;-81
2024/01/07 10:47:44;;;;;;;5.38;4.63;;;22.30;26.70;;;;;;4935068;28;45532;-82
2024/01/07 10:50:11;;;;;;;5.43;4.63;;;22.30;26.70;;;;;;4943979;28;46097;-82
2024/01/07 10:52:36;;;;;;;5.05;4.53;;;22.20;26.60;;;;;;4935494;28;45680;-81
2024/01/07 10:55:11;;;;;;;5.23;4.43;;;22.20;26.60;;;;;;4952083;28;46128;-82
2024/01/07 10:57:47;;;;;;;5.57;4.38;;;22.20;26.70;;;;;;4947508;28;45589;-83
2024/01/07 11:00:35;;;;;;;5.57;4.30;;;22.20;26.60;;;;;;4941975;28;45519;-80
2024/01/07 11:03:25;;;;;;;5.07;4.53;;;22.20;26.60;;;;;;4951890;28;45300;-82
2024/01/07 11:06:03;;;;;;;6.03;4.75;;;22.20;26.60;;;;;;4947276;28;45359;-82
2024/01/07 11:08:40;;;;;;;5.43;4.80;;;22.20;26.60;;;;;;4957103;28;46761;-83
2024/01/07 11:11:25;;;;;;;6.55;4.88;;;22.20;26.60;;;;;;4947607;28;45868;-82
2024/01/07 11:14:39;;;;;;;6.47;5.03;;;22.20;26.60;;;;;;4955920;28;45558;-82
2024/01/07 11:17:07;;;;;;;5.78;5.00;;;22.10;26.60;;;;;;4919938;28;45651;-83
2024/01/07 11:19:35;;;;;;;6.28;5.18;;;22.10;26.60;;;;;;4937914;28;45698;-82
2024/01/07 11:22:30;;;;;;;7.07;5.22;;;22.10;26.50;;;;;;4965998;28;46043;-82
2024/01/07 11:24:56;;;;;;;6.40;5.40;;;22.10;26.40;;;;;;4986912;28;45432;-82
2024/01/07 11:27:39;;;;;;;6.00;5.13;;;22.10;26.40;;;;;;4919002;28;45673;-82
2024/01/07 11:30:08;;;;;;;5.90;5.00;;;22.10;26.50;;;;;;4948914;28;45244;-81
2024/01/07 11:32:34;;;;;;;6.30;5.20;;;22.00;26.40;;;;;;4931348;28;46210;-83
2024/01/07 11:35:02;;;;;;;6.40;4.93;;;22.00;26.40;;;;;;4982852;28;45346;-83
2024/01/07 11:37:28;;;;;;;6.57;5.30;;;22.00;26.40;;;;;;4935192;28;45307;-82
2024/01/07 11:39:57;;;;;;;6.07;5.03;;;22.00;26.30;;;;;;4951275;28;46372;-83
2024/01/07 11:42:24;;;;;;;6.18;5.07;;;22.00;26.30;;;;;;4958897;28;46628;-83
2024/01/07 11:44:53;;;;;;;5.55;4.65;;;22.00;26.20;;;;;;4954791;28;45192;-82
2024/01/07 11:47:19;;;;;;;7.00;5.10;;;22.00;26.20;;;;;;4914651;28;45496;-82
2024/01/07 11:49:45;;;;;;;7.47;5.57;;;22.00;26.20;;;;;;4937700;28;45495;-82
2024/01/07 11:52:12;;;;;;;6.95;5.20;;;22.10;26.20;;;;;;4926734;28;45939;-83
2024/01/07 11:54:38;;;;;;;5.80;4.63;;;22.10;26.10;;;;;;4964563;28;44840;-83
2024/01/07 11:57:05;;;;;;;6.03;5.10;;;22.10;26.10;;;;;;4919916;28;44884;-83
2024/01/07 11:59:31;;;;;;;6.00;5.13;;;22.10;26.10;;;;;;4966910;28;45341;-83
2024/01/07 12:01:57;;;;;;;6.68;5.18;;;22.10;26.10;;;;;;4942123;28;46926;-82
2024/01/07 12:04:23;;;;;;;6.53;5.27;;;22.10;26.10;;;;;;4953933;28;45505;-83
2024/01/07 12:06:49;;;;;;;7.05;5.40;;;22.20;26.10;;;;;;4968744;28;45294;-83
2024/01/07 12:09:15;;;;;;;5.85;5.22;;;22.10;26.00;;;;;;4965442;28;45580;-83
2024/01/07 12:11:50;;;;;;;6.63;4.97;;;22.20;26.00;;;;;;4967144;28;45505;-83
2024/01/07 12:14:16;;;;;;;5.45;4.75;;;22.20;26.00;;;;;;4956293;28;45223;-83
2024/01/07 12:16:42;;;;;;;6.95;5.22;;;22.20;26.50;;;;;;4961855;28;45350;-82
2024/01/07 12:19:11;;;;;;;6.22;4.95;;;22.20;25.90;;;;;;4949026;28;44889;-83
2024/01/07 12:21:37;;;;;;;6.63;4.90;;;22.20;25.90;;;;;;4952558;28;45409;-84
2024/01/07 12:24:04;;;;;;;5.57;4.80;;;22.20;25.90;;;;;;4971574;28;45375;-84
2024/01/07 12:26:30;;;;;;;6.43;5.00;;;22.30;25.90;;;;;;4918409;28;45612;-83
2024/01/07 12:28:59;;;;;;;5.68;4.85;;;22.30;25.90;;;;;;4953378;28;45314;-84
2024/01/07 12:31:28;;;;;;;6.47;5.22;;;22.30;25.90;;;;;;4942779;28;46374;-83
2024/01/07 12:33:54;;;;;;;6.10;5.07;;;22.30;25.90;;;;;;4953624;28;45324;-83
2024/01/07 12:36:22;;;;;;;5.15;4.32;;;22.30;25.80;;;;;;4950673;28;44838;-83
2024/01/07 12:38:48;;;;;;;5.80;4.78;;;22.30;25.80;;;;;;4970784;28;45567;-83
2024/01/07 12:41:14;;;;;;;5.93;4.82;;;22.30;25.70;;;;;;4964778;28;45426;-83
2024/01/07 12:43:40;;;;;;;5.67;4.57;;;22.30;25.80;;;;;;4953193;28;45382;-83
2024/01/07 12:46:06;;;;;;;5.73;4.60;;;22.30;25.90;;;;;;4966718;28;45304;-83
2024/01/07 12:48:32;;;;;;;7.32;4.90;;;22.40;25.60;;;;;;4955109;28;45242;-84
2024/01/07 12:50:58;;;;;;;5.22;4.13;;;22.40;25.60;;;;;;4935135;28;45851;-84
2024/01/07 12:53:24;;;;;;;5.97;4.77;;;22.40;25.60;;;;;;4972421;28;44890;-83
2024/01/07 12:55:50;;;;;;;4.97;4.40;;;22.40;25.50;;;;;;4952319;28;45419;-82
2024/01/07 12:58:16;;;;;;;5.27;4.50;;;22.40;25.50;;;;;;4937666;28;45426;-83
2024/01/07 13:00:43;;;;;;;5.10;4.20;;;22.50;25.50;;;;;;4914014;28;46128;-83
2024/01/07 13:03:17;;;;;;;5.25;4.22;;;22.50;26.00;;;;;;4967516;28;44929;-83
2024/01/07 13:05:46;;;;;;;5.13;4.37;;;22.50;25.50;;;;;;4963656;28;44896;-83
2024/01/07 13:08:15;;;;;;;4.63;3.90;;;22.50;25.40;;;;;;4966232;28;45453;-83
2024/01/07 13:10:41;;;;;;;5.00;4.20;;;22.50;25.40;;;;;;4945769;28;46337;-83
2024/01/07 13:13:07;;;;;;;5.13;4.05;;;22.50;25.40;;;;;;4969088;28;45243;-83
2024/01/07 13:15:32;;;;;;;5.85;4.40;;;22.50;25.40;;;;;;4952725;28;45403;-82
2024/01/07 13:17:58;;;;;;;5.20;4.20;;;22.50;25.40;;;;;;4951934;28;45450;-83
2024/01/07 13:20:25;;;;;;;4.88;3.97;;;22.50;25.20;;;;;;4962567;28;45526;-83
2024/01/07 13:22:50;;;;;;;5.37;4.13;;;22.60;25.30;;;;;;4979035;28;45522;-83
2024/01/07 13:25:16;;;;;;;5.72;4.40;;;22.60;25.20;;;;;;4915200;28;45356;-83
2024/01/07 13:27:42;;;;;;;4.72;3.97;;;22.70;25.10;;;;;;4933290;28;45564;-83
2024/01/07 13:30:08;;;;;;;4.60;3.73;;;22.70;25.10;;;;;;4948342;28;46242;-86
2024/01/07 13:32:36;;;;;;;5.15;3.58;;;22.70;25.10;;;;;;4955997;28;44736;-83
2024/01/07 13:35:03;;;;;;;4.88;3.90;;;22.70;25.10;;;;;;4970509;28;45758;-83
2024/01/07 13:37:30;;;;;;;4.75;3.63;;;22.70;25.00;;;;;;4948859;28;47202;-83
2024/01/07 13:39:56;;;;;;;4.65;3.58;;;22.70;25.00;;;;;;4965951;28;46163;-83
2024/01/07 13:42:22;;;;;;;4.60;3.60;;;22.70;24.90;;;;;;4948303;28;45237;-83
2024/01/07 13:44:48;;;;;;;5.55;3.70;;;22.70;24.90;;;;;;4954183;28;44868;-83
2024/01/07 13:47:14;;;;;;;5.03;3.27;;;22.80;24.90;;;;;;4927875;28;44964;-83
2024/01/07 13:49:41;;;;;;;4.45;3.70;;;22.80;24.90;;;;;;4951224;28;45553;-82
2024/01/07 13:52:06;;;;;;;4.00;3.40;;;22.80;24.90;;;;;;4949742;28;44918;-83
2024/01/07 13:54:32;;;;;;;4.35;3.30;;;22.80;24.90;;;;;;4950726;28;44987;-84
2024/01/07 13:56:59;;;;;;;3.83;3.15;;;22.80;24.80;;;;;;4947101;28;45465;-83
2024/01/07 13:59:26;;;;;;;4.82;3.47;;;22.90;24.80;;;;;;4956371;28;46741;-82
2024/01/07 14:01:52;;;;;;;5.05;3.00;;;22.90;24.80;;;;;;4956488;28;46099;-83
2024/01/07 14:04:18;;;;;;;4.40;3.30;;;22.90;24.70;;;;;;4969602;28;45562;-83
2024/01/07 14:06:44;;;;;;;3.93;2.93;;;22.90;24.80;;;;;;4963660;28;45600;-83
2024/01/07 14:09:10;;;;;;;3.35;2.83;;;22.90;24.60;;;;;;4968099;28;46197;-83
2024/01/07 14:11:35;;;;;;;3.75;2.60;;;22.90;24.60;;;;;;4947028;28;45444;-83
2024/01/07 14:14:02;;;;;;;3.08;2.63;;;22.90;24.60;;;;;;4934709;28;45596;-83
2024/01/07 14:16:29;;;;;;;3.90;3.03;;;22.90;24.60;;;;;;4943714;28;45507;-83
2024/01/07 14:18:55;;;;;;;3.60;2.80;;;23.00;24.70;;;;;;4933846;28;46014;-83
2024/01/07 14:21:21;;;;;;;3.83;2.83;;;23.00;24.60;;;;;;4962806;28;45707;-83
2024/01/07 14:23:47;;;;;;;3.15;2.70;;;23.00;24.50;;;;;;4936892;28;44885;-83
2024/01/07 14:26:13;;;;;;;2.88;2.40;;;23.00;24.40;;;;;;4946421;28;45672;-82
2024/01/07 14:28:39;;;;;;;3.30;2.80;;;23.00;24.80;;;;;;4951175;28;46255;-82
2024/01/07 14:31:05;;;;;;;2.90;2.60;;;23.10;24.30;;;;;;4943568;28;45525;-83
2024/01/07 14:33:31;;;;;;;3.37;2.53;;;23.10;24.30;;;;;;4947844;28;45854;-82
2024/01/07 14:35:57;;;;;;;3.78;2.75;;;23.10;24.20;;;;;;4936581;28;45207;-83
2024/01/07 14:38:23;;;;;;;3.23;2.60;;;23.10;24.20;;;;;;4981901;28;45410;-83
2024/01/07 14:40:50;;;;;;;2.85;2.35;;;23.20;24.20;;;;;;4948745;28;45360;-83
2024/01/07 14:43:17;;;;;;;3.00;2.70;;;23.20;24.20;;;;;;4969369;28;45313;-83
2024/01/07 14:45:45;;;;;;;2.35;2.00;;;23.20;24.10;;;;;;4941941;28;45665;-83
2024/01/07 14:48:10;;;;;;;2.80;2.47;;;23.20;24.10;;;;;;4952621;28;45972;-82
2024/01/07 14:50:36;;;;;;;2.50;2.07;;;23.30;24.10;;;;;;4959130;28;45811;-83
2024/01/07 14:53:02;;;;;;;2.60;2.13;;;23.30;24.10;;;;;;4931708;28;45280;-81
2024/01/07 14:55:29;;;;;;;3.35;2.22;;;23.30;24.10;;;;;;4978063;28;45700;-83
2024/01/07 14:57:55;;;;;;;2.78;2.30;;;23.30;24.00;;;;;;4967435;28;46491;-83
2024/01/07 15:00:21;;;;;;;2.90;2.30;;;23.30;24.00;;;;;;4940436;28;45156;-82
2024/01/07 15:02:47;;;;;;;2.63;2.28;;;23.30;23.90;;;;;;4966182;28;45090;-82
2024/01/07 15:05:13;;;;;;;2.22;2.00;;;23.40;23.90;;;;;;4944993;28;45660;-82
2024/01/07 15:07:39;;;;;;;2.40;2.10;;;23.40;23.90;;;;;;4949771;28;46670;-82
2024/01/07 15:10:08;;;;;;;2.72;2.22;;;23.40;23.90;;;;;;4965705;28;44948;-82
2024/01/07 15:12:38;;;;;;;2.60;2.30;;;23.40;23.90;;;;;;4963305;28;45731;-83
2024/01/07 15:15:05;;;;;;;3.05;2.38;;;23.50;23.90;;;;;;4964009;28;45279;-81
2024/01/07 15:17:31;;;;;;;2.65;2.00;;;23.50;23.90;;;;;;4929701;28;46238;-82
2024/01/07 15:19:57;;;;;;;2.97;2.33;;;23.50;23.80;;;;;;4964272;28;45594;-83
2024/01/07 15:22:23;;;;;;;2.58;2.38;;;23.50;23.80;;;;;;4979273;28;45527;-83
2024/01/07 15:24:49;;;;;;;2.40;2.20;;;23.50;23.90;;;;;;4950411;28;45175;-82
2024/01/07 15:27:15;;;;;;;2.40;2.08;;;23.50;23.80;;;;;;4942800;28;46211;-82
2024/01/07 15:29:41;;;;;;;2.80;2.40;;;23.50;23.80;;;;;;4933931;28;45022;-82
2024/01/07 15:32:07;;;;;;;2.40;2.20;;;23.60;23.80;;;;;;4955676;28;45215;-83
2024/01/07 15:34:33;;;;;;;2.67;2.17;;;23.60;23.80;;;;;;4956001;28;45577;-82
2024/01/07 15:36:59;;;;;;;3.30;2.10;;;23.60;23.70;;;;;;4928081;28;46182;-83
2024/01/07 15:39:24;;;;;;;2.83;2.20;;;23.70;23.80;;;;;;4955401;28;45462;-82
2024/01/07 15:41:50;;;;;;;2.40;1.95;;;23.60;23.70;;;;;;4963836;28;45371;-81
2024/01/07 15:44:16;;;;;;;2.70;2.20;;;23.70;23.80;;;;;;4951310;28;45279;-82
2024/01/07 15:46:42;;;;;;;2.78;2.40;;;23.70;23.70;;;;;;4956953;28;45374;-81
2024/01/07 15:49:08;;;;;;;2.88;2.03;;;23.70;23.70;;;;;;4929780;28;45344;-82
2024/01/07 15:51:34;;;;;;;3.60;2.15;;;23.70;23.60;;;;;;4950029;28;45051;-82
2024/01/07 15:54:00;;;;;;;2.30;1.90;;;23.70;23.70;;;;;;4953994;28;45595;-82
2024/01/07 15:56:25;;;;;;;2.27;1.90;;;23.70;23.60;;;;;;4950960;28;46417;-82
2024/01/07 15:58:51;;;;;;;2.55;2.10;;;23.70;23.60;;;;;;4966679;28;45722;-82
2024/01/07 16:01:17;;;;;;;2.33;1.98;;;23.70;23.60;;;;;;4944104;28;45267;-82
2024/01/07 16:03:43;;;;;;;1.95;1.75;;;23.70;23.50;;;;;;4952353;28;45571;-81
2024/01/07 16:06:09;;;;;;;2.22;2.03;;;23.70;23.50;;;;;;4951773;28;46414;-82
2024/01/07 16:08:35;;;;;;;2.55;2.17;;;23.70;23.50;;;;;;4970138;28;45300;-82
2024/01/07 16:11:03;;;;;;;2.35;1.98;;;23.70;23.50;;;;;;4967460;28;45330;-82
2024/01/07 16:13:28;;;;;;;3.30;2.05;;;23.80;23.50;;;;;;4970773;28;45446;-82
2024/01/07 16:15:54;;;;;;;2.67;2.10;;;23.70;23.40;;;;;;4921496;28;46578;-83
2024/01/07 16:18:20;;;;;;;2.37;2.10;;;23.80;23.40;;;;;;4970248;28;45460;-82
2024/01/07 16:20:46;;;;;;;2.67;1.90;;;23.80;23.40;;;;;;4967224;28;45220;-82
2024/01/07 16:23:12;;;;;;;2.63;1.90;;;23.80;23.50;;;;;;4951895;28;45030;-83
2024/01/07 16:25:38;;;;;;;2.42;2.10;;;23.70;23.40;;;;;;4943361;28;46081;-82
2024/01/07 16:28:06;;;;;;;3.22;2.00;;;23.80;23.40;;;;;;4953002;28;45214;-83
2024/01/07 16:30:32;;;;;;;2.17;1.95;;;23.80;23.30;;;;;;4945329;28;45661;-82
2024/01/07 16:33:00;;;;;;;3.30;2.15;;;23.80;23.40;;;;;;4921567;28;45191;-82
2024/01/07 16:35:26;;;;;;;2.60;2.08;;;23.70;23.30;;;;;;4981992;28;45794;-81
2024/01/07 16:37:52;;;;;;;2.63;2.20;;;23.80;23.30;;;;;;4986769;28;45410;-82
2024/01/07 16:40:18;;;;;;;2.40;1.80;;;23.80;23.30;;;;;;4985018;28;45344;-79
2024/01/07 16:42:44;;;;;;;2.00;1.80;;;23.80;23.30;;;;;;4967340;28;45291;-83
2024/01/07 16:45:09;;;;;;;2.10;1.90;;;23.80;23.30;;;;;;4965228;28;46066;-81
2024/01/07 16:47:35;;;;;;;2.28;2.08;;;23.80;23.30;;;;;;4964698;28;45226;-82